Nearby METAR Reports

 

EBAW - Antwerp/Deurne, Belgium
Distance from station: SSE 9km
Actualización: 23/05/2024 05:50
Cubierto
Cubierto
 Viento del SSO
Viento: SSO 15 km/h
Temperatura: 13°C
Rocío: 10°C
Humedad: 82%
Barómetro: 1013 hPa
Clouds: Cubierto
Visibility: 10 km
Cloud details: Cubierto 732 m
2024/05/23 03:50 EBAW 230350Z AUTO 21008KT 9999 // OVC024/// 13/10 Q1013
EHWO - Woensdrecht Rnla, Netherlands
Distance from station: NNO 20km
Actualización: 23/05/2024 05:55
Parcialmente nuboso
Parcialmente nuboso
 Viento del SO
Viento: SO 17 km/h
Temperatura: 13°C
Rocío: 11°C
Humedad: 88%
Barómetro: 1012 hPa
Clouds: Parcialmente nuboso
Visibility: 10 km
Cloud details: Parcialmente nuboso 518 m
2024/05/23 03:55 EHWO 230355Z AUTO 22009KT 170V260 9999 SCT017 13/11 Q1012 WHT
 
EBBR - Brussels Nationa, Belgium
Distance from station: S 43km
Actualización: 23/05/2024 05:50
Few Clouds
Few Clouds
 Viento del SSO
Viento: SSO 9 km/h
Temperatura: 11°C
Rocío: 10°C
Humedad: 94%
Barómetro: 1013 hPa
Clouds: Few Clouds
Visibility: 10 km
Cloud details: Few Clouds 732 m
2024/05/23 03:50 EBBR 230350Z 20005KT 9999 FEW024 11/10 Q1013 NOSIG
EHGR - Gilze-Rijen Rnla, Netherlands
Distance from station: NE 47km
Actualización: 23/05/2024 05:55
Cubierto
Cubierto
 Viento del SSO
Viento: SSO 13 km/h
Temperatura: 13°C
Rocío: 11°C
Humedad: 88%
Barómetro: 1012 hPa
Clouds: Cubierto
Visibility: 10 km
Cloud details: Cubierto 457 m
2024/05/23 03:55 EHGR 230355Z AUTO 21007KT 170V250 9999 OVC015 13/11 Q1012 WHT
 
EBDT - Schaffen, Belgium
Distance from station: ESE 54km
Actualización: 23/05/2024 05:55
Despejado
Despejado
 Viento del SSO
Viento: SSO 7 km/h
Temperatura: 11°C
Rocío: 10°C
Humedad: 94%
Barómetro: 1013 hPa
Clouds: Despejado
Visibility: 10 km
2024/05/23 03:55 EBDT 230355Z AUTO 20004KT 9999 NCD 11/10 Q1013 BLU
EHFS - Vlissingen, Netherlands
Distance from station: ONO 60km
Actualización: 23/05/2024 05:25
Cubierto
Cubierto
 Viento del SSO
Viento: SSO 30 km/h
Temperatura: 14°C
Rocío: 12°C
Humedad: 88%
Barómetro: 1011 hPa
Clouds: Cubierto
Visibility: 10 km
Cloud details: Few Clouds 335 m
Muy nuboso 427 m
Cubierto 518 m
2024/05/23 03:25 EHFS 230325Z AUTO 20016KT 9999 FEW011/// BKN014/// OVC017/// 14/12 Q1011
 
EBBE - Beauvechain (baf, Belgium
Distance from station: SSE 64km
Actualización: 23/05/2024 05:55
Despejado
Despejado
 Viento del SSO
Viento: SSO 13 km/h
Temperatura: 12°C
Rocío: 10°C
Humedad: 88%
Barómetro: 1013 hPa
Clouds: Despejado
Visibility: 10 km
2024/05/23 03:55 EBBE 230355Z AUTO 20007KT 9999 NCD 12/10 Q1013 BLU
EHEH - Eindhoven Rnlafb, Netherlands
Distance from station: ENE 69km
Actualización: 23/05/2024 05:55
Parcialmente nuboso
Parcialmente nuboso
 Viento del SSO
Viento: SSO 11 km/h
Temperatura: 12°C
Rocío: 10°C
Humedad: 88%
Barómetro: 1013 hPa
Clouds: Parcialmente nuboso
Visibility: 10 km
Cloud details: Parcialmente nuboso 488 m
2024/05/23 03:55 EHEH 230355Z AUTO 20006KT 9999 SCT016 12/10 Q1013 WHT
 
EBBL - Kleine-Brogel(Ba, Belgium
Distance from station: E 74km
Actualización: 23/05/2024 05:55
Despejado
Despejado
 Viento del SSO
Viento: SSO 9 km/h
Temperatura: 11°C
Rocío: 10°C
Humedad: 94%
Barómetro: 1013 hPa
Clouds: Despejado
Visibility: 10 km
2024/05/23 03:55 EBBL 230355Z AUTO 21005KT 9999 NCD 11/10 Q1013 BLU
EHRD - Rotterdam Airpor, Netherlands
Distance from station: N 75km
Actualización: 23/05/2024 05:55
Cubierto
Cubierto
 Viento del SO
Viento: SO 17 km/h
Temperatura: 14°C
Rocío: 11°C
Humedad: 82%
Barómetro: 1011 hPa
Clouds: Cubierto
Visibility: 10 km
Cloud details: Parcialmente nuboso 427 m
Cubierto 488 m
2024/05/23 03:55 EHRD 230355Z AUTO 22009KT 190V250 9999 SCT014/// OVC016/// 14/11 Q1011 NOSIG
 
EHSC - Goeree Le Sea, Netherlands
Distance from station: NO 89km
Actualización: 23/05/2024 05:55

 Viento del SO
Viento: SO 41 km/h
Temperatura: 14°C
Rocío: 12°C
Humedad: 88%
Barómetro: 1011 hPa
Visibility: 10 km
2024/05/23 03:55 EHSC 230355Z AUTO 23022KT 9999 ///////// 14/12 Q1011 W14/H11
EBCI - Charleroi/Gossel, Belgium
Distance from station: S 90km
Actualización: 23/05/2024 05:50
Few Clouds
Few Clouds
 Viento del SSO
Viento: SSO 13 km/h
Temperatura: 10°C
Wind Chill: 8°C
Rocío: 9°C
Humedad: 94%
Barómetro: 1014 hPa
Clouds: Few Clouds
Visibility: 10 km
Cloud details: Few Clouds 457 m
2024/05/23 03:50 EBCI 230350Z 20007KT 9999 FEW015 10/09 Q1014 NOSIG
 
EBCV - Chievres Ab, Belgium
Distance from station: SSO 90km
Actualización: 23/05/2024 05:55
Cubierto
Cubierto
 Viento del SSO
Viento: SSO 13 km/h
Temperatura: 11°C
Rocío: 10°C
Humedad: 94%
Barómetro: 1013 hPa
Clouds: Cubierto
Visibility: 10 km
Cloud details: Parcialmente nuboso 488 m
Muy nuboso 1433 m
Cubierto 3048 m
2024/05/23 03:55 EBCV 230355Z AUTO 21007KT 9999 SCT016/// BKN047/// OVC100/// 11/10 Q1013 WHT
EHVK - Volkel Rnlafb, Netherlands
Distance from station: ENE 97km
Actualización: 23/05/2024 05:55
Despejado
Despejado
 Viento del S
Viento: S 9 km/h
Temperatura: 11°C
Rocío: 10°C
Humedad: 94%
Barómetro: 1013 hPa
Clouds: Despejado
Visibility: 10 km
2024/05/23 03:55 EHVK 230355Z AUTO 19005KT 160V230 9999 NCD 11/10 Q1013 BLU
 
EBLG - Bierset/Liege (c, Belgium
Distance from station: SE 102km
Actualización: 23/05/2024 05:50
Despejado
Despejado
 Viento del SSO
Viento: SSO 15 km/h
Temperatura: 11°C
Rocío: 9°C
Humedad: 88%
Barómetro: 1014 hPa
Resumen: Despejado
Visibility: greater than 10 km
2024/05/23 03:50 EBLG 230350Z 21008KT 180V240 CAVOK 11/09 Q1014 NOSIG
EHBK - Zuid-Limburg/Bee, Netherlands
Distance from station: ESE 102km
Actualización: 23/05/2024 05:55
Few Clouds
Few Clouds
 Viento del SSO
Viento: SSO 11 km/h
Temperatura: 11°C
Rocío: 9°C
Humedad: 88%
Barómetro: 1014 hPa
Clouds: Few Clouds
Visibility: 10 km
Cloud details: Few Clouds 640 m
2024/05/23 03:55 EHBK 230355Z AUTO 20006KT 9999 FEW021 11/09 Q1014 NOSIG
 
EBOS - Oostende Airport, Belgium
Distance from station: O 108km
Actualización: 23/05/2024 05:50
Few Clouds
Few Clouds
 Viento del SO
Viento: SO 17 km/h
Temperatura: 12°C
Rocío: 11°C
Humedad: 94%
Barómetro: 1012 hPa
Clouds: Few Clouds
Visibility: 10 km
Cloud details: Few Clouds 366 m
2024/05/23 03:50 EBOS 230350Z 22009KT 9999 FEW012 12/11 Q1012 TEMPO BKN012
EHSA - Euro Platform, Netherlands
Distance from station: NO 112km
Actualización: 23/05/2024 05:55

 Viento del SSO
Viento: SSO 37 km/h
Temperatura: 13°C
Rocío: 12°C
Humedad: 94%
Barómetro: 1010 hPa
Visibility: 10 km
2024/05/23 03:55 EHSA 230355Z AUTO 20020KT 9999 ///////// 13/12 Q1010 W13/H12
 
EHAM - Amsterdam/Schiph, Netherlands
Distance from station: NNE 118km
Actualización: 23/05/2024 05:55
Muy nuboso
Muy nuboso
 Viento del SSO
Viento: SSO 20 km/h
Temperatura: 14°C
Rocío: 12°C
Humedad: 88%
Barómetro: 1011 hPa
Clouds: Muy nuboso
Visibility: 10 km
Cloud details: Parcialmente nuboso 488 m
Muy nuboso 853 m
2024/05/23 03:55 EHAM 230355Z 20011KT 9999 SCT016 BKN028 14/12 Q1011 TEMPO BKN016
ETNG - Geilenkirchen(Na, Germany
Distance from station: ESE 118km
Actualización: 23/05/2024 05:50
Few Clouds
Few Clouds
 Viento del SO
Viento: SO 9 km/h
Temperatura: 13°C
Rocío: 10°C
Humedad: 82%
Barómetro: 1014 hPa
Clouds: Few Clouds
Visibility: 10 km
Cloud details: Few Clouds 610 m
2024/05/23 03:50 ETNG 230350Z 22005KT 9999 FEW020 13/10 Q1014